createdAt,value
2023-02-23T00:00:28.685Z,46.67
2023-02-23T00:02:59.143Z,46.27
2023-02-23T00:05:27.428Z,44.77
2023-02-23T00:07:54.968Z,48.90
2023-02-23T00:10:30.147Z,47.30
2023-02-23T00:13:00.123Z,52.10
2023-02-23T00:15:27.787Z,47.73
2023-02-23T00:17:55.888Z,50.77
2023-02-23T00:20:30.065Z,45.03
2023-02-23T00:22:58.437Z,58.07
2023-02-23T00:25:25.482Z,44.80
2023-02-23T00:27:52.798Z,52.93
2023-02-23T00:30:21.192Z,45.37
2023-02-23T00:32:49.913Z,47.50
2023-02-23T00:35:17.538Z,52.73
2023-02-23T00:37:45.917Z,49.53
2023-02-23T00:40:16.237Z,49.47
2023-02-23T00:42:45.440Z,53.60
2023-02-23T00:45:13.351Z,48.80
2023-02-23T00:47:44.043Z,44.80
2023-02-23T00:50:13.028Z,46.20
2023-02-23T00:52:41.353Z,49.50
2023-02-23T00:55:10.131Z,45.50
2023-02-23T00:57:37.451Z,44.93
2023-02-23T01:00:25.477Z,46.93
2023-02-23T01:02:53.646Z,48.67
2023-02-23T01:05:22.114Z,49.13
2023-02-23T01:07:49.220Z,51.13
2023-02-23T01:10:19.346Z,50.40
2023-02-23T01:12:48.596Z,46.83
2023-02-23T01:15:15.930Z,47.83
2023-02-23T01:17:43.465Z,50.50
2023-02-23T01:20:19.918Z,49.10
2023-02-23T01:22:49.663Z,48.30
2023-02-23T01:25:17.694Z,44.30
2023-02-23T01:27:45.546Z,49.70
2023-02-23T01:30:14.903Z,50.33
2023-02-23T01:32:42.331Z,53.77
2023-02-23T01:35:10.938Z,45.37
2023-02-23T01:37:41.477Z,49.43
2023-02-23T01:40:15.107Z,49.97
2023-02-23T01:42:44.575Z,48.80
2023-02-23T01:45:35.813Z,45.63
2023-02-23T01:48:06.977Z,47.60
2023-02-23T01:50:43.215Z,53.97
2023-02-23T01:53:11.910Z,51.67
2023-02-23T01:55:39.584Z,47.07
2023-02-23T01:58:15.521Z,51.20
2023-02-23T02:00:50.051Z,58.40
2023-02-23T02:03:26.782Z,50.10
2023-02-23T02:05:56.792Z,51.57
2023-02-23T02:08:26.964Z,47.40
2023-02-23T02:10:56.107Z,51.80
2023-02-23T02:13:29.654Z,55.43
2023-02-23T02:16:20.402Z,45.83
2023-02-23T02:18:58.417Z,48.13
2023-02-23T02:22:05.263Z,49.73
2023-02-23T02:25:01.376Z,50.83
2023-02-23T02:27:57.690Z,48.80
2023-02-23T02:30:48.184Z,44.63
2023-02-23T02:34:08.830Z,47.67
2023-02-23T02:36:55.762Z,49.53
2023-02-23T02:39:36.385Z,47.77
2023-02-23T02:42:16.369Z,51.47
2023-02-23T02:44:52.072Z,46.63
2023-02-23T02:47:29.034Z,48.57
2023-02-23T02:50:04.206Z,46.40
2023-02-23T02:52:37.520Z,54.03
2023-02-23T02:55:12.164Z,57.57
2023-02-23T02:57:41.205Z,48.07
2023-02-23T03:00:30.246Z,49.47
2023-02-23T03:03:15.932Z,52.70
2023-02-23T03:06:07.364Z,51.77
2023-02-23T03:08:59.669Z,51.47
2023-02-23T03:11:54.106Z,56.20
2023-02-23T03:14:52.463Z,50.63
2023-02-23T03:17:48.427Z,51.73
2023-02-23T03:20:41.782Z,53.13
2023-02-23T03:23:38.013Z,55.57
2023-02-23T03:26:29.772Z,52.97
2023-02-23T03:29:22.873Z,52.83
2023-02-23T03:32:15.176Z,47.97
2023-02-23T03:35:05.027Z,52.17
2023-02-23T03:37:56.741Z,53.10
2023-02-23T03:40:46.067Z,46.27
2023-02-23T03:43:37.234Z,50.47
2023-02-23T03:46:26.407Z,54.27
2023-02-23T03:49:14.860Z,47.67
2023-02-23T03:52:03.784Z,48.23
2023-02-23T03:54:54.720Z,44.43
2023-02-23T03:57:44.528Z,50.57
2023-02-23T04:00:38.888Z,52.37
2023-02-23T04:03:28.562Z,54.07
2023-02-23T04:06:16.260Z,48.47
2023-02-23T04:09:02.688Z,47.83
2023-02-23T04:11:58.587Z,48.40
2023-02-23T04:14:31.238Z,52.77
2023-02-23T04:17:00.126Z,47.73
2023-02-23T04:19:29.111Z,48.17
2023-02-23T04:21:55.960Z,53.00
2023-02-23T04:24:23.458Z,47.73
2023-02-23T04:26:50.599Z,51.87
2023-02-23T04:29:17.754Z,57.00
2023-02-23T04:31:44.970Z,48.93
2023-02-23T04:34:14.298Z,51.10
2023-02-23T04:36:41.166Z,50.80
2023-02-23T04:39:08.237Z,55.83
2023-02-23T04:41:35.111Z,47.60
2023-02-23T04:44:02.425Z,49.30
2023-02-23T04:46:30.377Z,49.77
2023-02-23T04:48:57.548Z,52.73
2023-02-23T04:51:30.719Z,54.83
2023-02-23T04:53:58.066Z,55.00
2023-02-23T04:56:24.977Z,50.77
2023-02-23T04:58:51.926Z,51.87
2023-02-23T05:01:19.468Z,48.27
2023-02-23T05:03:46.521Z,55.03
2023-02-23T05:06:13.852Z,54.47
2023-02-23T05:08:42.308Z,52.37
2023-02-23T05:11:09.266Z,48.70
2023-02-23T05:13:36.405Z,52.47
2023-02-23T05:16:03.290Z,57.47
2023-02-23T05:18:30.476Z,54.00
2023-02-23T05:21:03.354Z,60.47
2023-02-23T05:23:30.386Z,58.40
2023-02-23T05:26:03.854Z,50.13
2023-02-23T05:28:31.279Z,58.63
2023-02-23T05:30:58.504Z,61.73
2023-02-23T05:33:25.506Z,56.33
2023-02-23T05:35:52.380Z,66.97
2023-02-23T05:38:19.984Z,65.90
2023-02-23T05:40:48.215Z,68.80
2023-02-23T05:43:16.653Z,68.90
2023-02-23T05:45:44.571Z,65.90
2023-02-23T05:48:12.191Z,61.37
2023-02-23T05:50:39.178Z,63.43
2023-02-23T05:53:06.509Z,71.70
2023-02-23T05:55:33.298Z,67.90
2023-02-23T05:58:00.434Z,62.50
2023-02-23T06:00:28.636Z,65.63
2023-02-23T06:02:55.836Z,67.27
2023-02-23T06:05:22.799Z,62.93
2023-02-23T06:07:49.906Z,68.17
2023-02-23T06:10:17.401Z,62.37
2023-02-23T06:12:44.242Z,67.63
2023-02-23T06:15:11.615Z,69.47
2023-02-23T06:17:40.080Z,64.57
2023-02-23T06:20:07.813Z,68.63
2023-02-23T06:22:35.033Z,76.50
2023-02-23T06:25:04.896Z,73.30
2023-02-23T06:27:32.183Z,78.73
2023-02-23T06:29:59.158Z,80.63
2023-02-23T06:32:27.421Z,73.73
2023-02-23T06:34:55.563Z,82.37
2023-02-23T06:37:22.678Z,74.10
2023-02-23T06:39:50.413Z,81.07
2023-02-23T06:42:17.795Z,86.07
2023-02-23T06:44:44.608Z,77.93
2023-02-23T06:47:11.514Z,76.63
2023-02-23T06:49:40.423Z,78.17
2023-02-23T06:52:09.372Z,81.47
2023-02-23T06:54:38.030Z,79.10
2023-02-23T06:57:05.123Z,85.53
2023-02-23T06:59:32.355Z,77.37
2023-02-23T07:01:59.591Z,84.43
2023-02-23T07:04:26.535Z,84.53
2023-02-23T07:06:54.530Z,75.87
2023-02-23T07:09:22.666Z,83.30
2023-02-23T07:11:49.873Z,83.17
2023-02-23T07:14:26.185Z,77.70
2023-02-23T07:16:54.290Z,83.30
2023-02-23T07:19:21.157Z,74.53
2023-02-23T07:21:48.013Z,79.60
2023-02-23T07:24:14.914Z,83.60
2023-02-23T07:26:47.215Z,81.70
2023-02-23T07:29:14.106Z,74.80
2023-02-23T07:31:41.473Z,82.67
2023-02-23T07:34:09.301Z,85.37
2023-02-23T07:36:36.812Z,84.67
2023-02-23T07:39:04.786Z,76.43
2023-02-23T07:41:31.975Z,78.50
2023-02-23T07:44:00.164Z,77.67
2023-02-23T07:46:27.062Z,78.37
2023-02-23T07:48:54.421Z,78.93
2023-02-23T07:51:21.624Z,79.87
2023-02-23T07:53:49.393Z,77.17
2023-02-23T07:56:16.338Z,79.27
2023-02-23T07:58:44.563Z,76.07
2023-02-23T08:01:13.701Z,80.40
2023-02-23T08:03:40.567Z,78.37
2023-02-23T08:06:08.030Z,82.67
2023-02-23T08:08:35.362Z,73.53
2023-02-23T08:11:03.963Z,81.33
2023-02-23T08:13:31.866Z,83.83
2023-02-23T08:15:59.258Z,79.47
2023-02-23T08:18:27.852Z,75.90
2023-02-23T08:20:59.140Z,70.10
2023-02-23T08:23:26.150Z,75.07
2023-02-23T08:25:54.712Z,67.03
2023-02-23T08:28:22.525Z,73.47
2023-02-23T08:30:49.853Z,76.00
2023-02-23T08:33:16.830Z,71.80
2023-02-23T08:35:45.571Z,73.90
2023-02-23T08:38:12.469Z,71.27
2023-02-23T08:40:39.369Z,79.57
2023-02-23T08:43:06.126Z,78.30
2023-02-23T08:45:33.264Z,91.03
2023-02-23T08:48:00.059Z,86.13
2023-02-23T08:50:27.648Z,90.73
2023-02-23T08:52:55.873Z,81.73
2023-02-23T08:55:24.282Z,91.30
2023-02-23T08:57:51.085Z,88.13
2023-02-23T09:00:19.093Z,86.00
2023-02-23T09:02:49.636Z,93.30
2023-02-23T09:05:17.019Z,91.43
2023-02-23T09:07:45.095Z,96.07
2023-02-23T09:10:15.280Z,90.13
2023-02-23T09:12:42.178Z,83.63
2023-02-23T09:15:10.119Z,88.33
2023-02-23T09:17:37.304Z,91.33
2023-02-23T09:20:05.502Z,94.80
2023-02-23T09:22:32.664Z,87.60
2023-02-23T09:24:59.906Z,92.77
2023-02-23T09:27:28.015Z,84.23
2023-02-23T09:29:55.144Z,85.40
2023-02-23T09:32:22.027Z,81.37
2023-02-23T09:34:50.232Z,91.50
2023-02-23T09:37:17.025Z,83.60
2023-02-23T09:39:45.920Z,82.90
2023-02-23T09:42:23.667Z,82.33
2023-02-23T09:45:04.220Z,74.37
2023-02-23T09:47:40.443Z,75.53
2023-02-23T09:50:16.073Z,85.03
2023-02-23T09:52:48.820Z,82.93
2023-02-23T09:55:16.552Z,88.90
2023-02-23T09:57:46.621Z,86.40
2023-02-23T10:00:19.307Z,81.83
2023-02-23T10:03:01.115Z,84.27
2023-02-23T10:05:32.139Z,77.03
2023-02-23T10:08:07.357Z,88.87
2023-02-23T10:10:41.291Z,87.90
2023-02-23T10:13:16.274Z,92.50
2023-02-23T10:15:50.972Z,95.27
2023-02-23T10:18:44.988Z,94.07
2023-02-23T10:21:18.946Z,100.47
2023-02-23T10:23:50.830Z,100.27
2023-02-23T10:26:21.744Z,101.97
2023-02-23T10:28:48.825Z,107.90
2023-02-23T10:31:27.979Z,108.87
2023-02-23T10:33:57.784Z,111.67
2023-02-23T10:36:35.333Z,106.10
2023-02-23T10:39:05.220Z,102.93
2023-02-23T10:41:32.485Z,105.77
2023-02-23T10:44:07.878Z,100.90
2023-02-23T10:46:46.495Z,101.73
2023-02-23T10:49:22.456Z,102.83
2023-02-23T10:51:52.298Z,103.37
2023-02-23T10:54:44.429Z,96.80
2023-02-23T10:57:18.923Z,91.57
2023-02-23T11:00:17.025Z,86.90
2023-02-23T11:02:46.246Z,94.83
2023-02-23T11:05:43.665Z,94.27
2023-02-23T11:08:30.422Z,88.60
2023-02-23T11:11:04.706Z,91.57
2023-02-23T11:13:39.771Z,90.03
2023-02-23T11:16:11.541Z,87.07
2023-02-23T11:18:41.618Z,81.17
2023-02-23T11:21:13.535Z,83.60
2023-02-23T11:23:41.605Z,90.10
2023-02-23T11:26:29.008Z,92.97
2023-02-23T11:28:58.088Z,95.80
2023-02-23T11:31:32.527Z,89.90
2023-02-23T11:34:02.287Z,84.93
2023-02-23T11:36:31.599Z,101.40
2023-02-23T11:39:07.857Z,101.57
2023-02-23T11:41:37.548Z,100.70
2023-02-23T11:44:06.411Z,101.30
2023-02-23T11:46:37.651Z,101.90
2023-02-23T11:49:08.466Z,99.03
2023-02-23T11:51:38.594Z,102.03
2023-02-23T11:54:10.264Z,94.83
2023-02-23T11:56:37.579Z,102.37
2023-02-23T11:59:10.135Z,108.20
2023-02-23T12:01:44.885Z,106.50
2023-02-23T12:04:26.024Z,105.63
2023-02-23T12:06:55.687Z,93.63
2023-02-23T12:09:26.766Z,97.53
2023-02-23T12:12:03.227Z,94.33
2023-02-23T12:14:33.651Z,97.80
2023-02-23T12:17:05.352Z,96.30
2023-02-23T12:19:38.007Z,97.33
2023-02-23T12:22:12.396Z,95.47
2023-02-23T12:24:44.848Z,92.53
2023-02-23T12:27:16.686Z,94.57
2023-02-23T12:30:03.438Z,99.77
2023-02-23T12:32:42.318Z,94.30
2023-02-23T12:35:16.538Z,98.40
2023-02-23T12:37:47.968Z,94.37
2023-02-23T12:40:17.413Z,95.43
2023-02-23T12:42:52.969Z,85.20
2023-02-23T12:45:28.922Z,84.03
2023-02-23T12:48:04.764Z,85.50
2023-02-23T12:50:37.598Z,89.67
2023-02-23T12:53:13.240Z,82.13
2023-02-23T12:55:50.744Z,79.73
2023-02-23T12:58:23.927Z,75.23
2023-02-23T13:00:58.205Z,77.30
2023-02-23T13:03:56.550Z,75.90
2023-02-23T13:06:35.332Z,83.33
2023-02-23T13:09:22.138Z,79.23
2023-02-23T13:12:07.714Z,80.57
2023-02-23T13:14:43.213Z,73.07
2023-02-23T13:17:25.696Z,72.80
2023-02-23T13:19:56.229Z,73.03
2023-02-23T13:22:33.617Z,74.10
2023-02-23T13:25:05.329Z,67.33
2023-02-23T13:27:36.872Z,67.30
2023-02-23T13:30:04.942Z,67.87
2023-02-23T13:32:33.746Z,59.97
2023-02-23T13:35:02.970Z,65.43
2023-02-23T13:37:35.319Z,58.37
2023-02-23T13:40:18.650Z,62.27
2023-02-23T13:42:56.625Z,55.57
2023-02-23T13:45:40.879Z,58.43
2023-02-23T13:48:19.188Z,55.67
2023-02-23T13:50:55.113Z,54.13
2023-02-23T13:53:39.612Z,64.30
2023-02-23T13:56:09.487Z,51.87
2023-02-23T13:58:37.283Z,50.70
2023-02-23T14:01:08.958Z,53.27
2023-02-23T14:03:42.144Z,54.37
2023-02-23T14:06:18.108Z,60.03
2023-02-23T14:08:52.389Z,61.53
2023-02-23T14:11:36.013Z,60.97
2023-02-23T14:14:04.114Z,72.97
2023-02-23T14:16:32.210Z,72.07
2023-02-23T14:19:10.445Z,74.77
2023-02-23T14:21:43.951Z,76.07
2023-02-23T14:24:19.407Z,68.23
2023-02-23T14:27:39.863Z,64.30
2023-02-23T14:30:19.949Z,58.40
2023-02-23T14:32:49.053Z,59.73
2023-02-23T14:35:44.717Z,55.07
2023-02-23T14:38:45.634Z,53.90
2023-02-23T14:41:21.901Z,50.30
2023-02-23T14:43:53.396Z,42.73
2023-02-23T14:46:23.762Z,38.60
2023-02-23T14:48:59.739Z,59.80
2023-02-23T14:51:36.682Z,30.87
2023-02-23T14:54:11.364Z,35.83
2023-02-23T14:56:47.169Z,36.70
2023-02-23T14:59:20.905Z,47.07
2023-02-23T15:01:49.325Z,34.03
2023-02-23T15:04:20.369Z,32.93
2023-02-23T15:06:47.744Z,30.03
2023-02-23T15:09:19.983Z,28.57
2023-02-23T15:11:53.968Z,27.13
2023-02-23T15:14:28.007Z,27.03
2023-02-23T15:16:56.633Z,27.80
2023-02-23T15:19:32.922Z,27.70
2023-02-23T15:22:01.885Z,26.00
2023-02-23T15:24:33.094Z,28.03
2023-02-23T15:27:01.340Z,31.30
2023-02-23T15:29:32.999Z,31.97
2023-02-23T15:32:15.004Z,29.77
2023-02-23T15:34:42.470Z,31.60
2023-02-23T15:37:20.024Z,27.40
2023-02-23T15:39:53.540Z,28.90
2023-02-23T15:42:25.393Z,28.87
2023-02-23T15:44:59.723Z,37.90
2023-02-23T15:47:32.487Z,30.63
2023-02-23T15:50:20.085Z,35.50
2023-02-23T15:53:00.160Z,30.37
2023-02-23T15:55:31.565Z,36.57
2023-02-23T15:58:02.177Z,35.70
2023-02-23T16:00:34.620Z,32.83
2023-02-23T16:03:03.277Z,33.30
2023-02-23T16:05:41.879Z,33.97
2023-02-23T16:08:22.895Z,38.70
2023-02-23T16:10:55.426Z,39.80
2023-02-23T16:13:24.116Z,37.80
2023-02-23T16:15:55.199Z,36.70
2023-02-23T16:18:33.042Z,36.83
2023-02-23T16:21:00.663Z,37.53
2023-02-23T16:23:34.429Z,40.17
2023-02-23T16:26:06.721Z,40.40
2023-02-23T16:28:36.562Z,42.00
2023-02-23T16:31:07.209Z,41.67
2023-02-23T16:33:43.492Z,44.53
2023-02-23T16:36:16.721Z,41.50
2023-02-23T16:38:57.780Z,43.90
2023-02-23T16:41:30.257Z,57.07
2023-02-23T16:44:01.815Z,51.60
2023-02-23T16:46:31.985Z,42.53
2023-02-23T16:49:05.149Z,44.77
2023-02-23T16:51:34.625Z,47.87
2023-02-23T16:54:04.457Z,48.97
2023-02-23T16:56:32.283Z,43.97
2023-02-23T16:59:03.216Z,42.97
2023-02-23T17:01:30.481Z,40.80
2023-02-23T17:03:58.995Z,42.30
2023-02-23T17:06:26.504Z,43.90
2023-02-23T17:08:58.033Z,41.13
2023-02-23T17:11:25.704Z,39.47
2023-02-23T17:13:52.470Z,44.10
2023-02-23T17:16:21.268Z,43.20
2023-02-23T17:18:48.832Z,44.43
2023-02-23T17:21:23.261Z,42.43
2023-02-23T17:23:51.382Z,46.00
2023-02-23T17:26:20.751Z,47.60
2023-02-23T17:28:48.264Z,47.80
2023-02-23T17:31:16.870Z,44.17
2023-02-23T17:33:46.253Z,42.97
2023-02-23T17:36:15.069Z,43.17
2023-02-23T17:38:44.157Z,42.43
2023-02-23T17:41:14.362Z,42.80
2023-02-23T17:43:41.679Z,43.97
2023-02-23T17:46:09.453Z,45.23
2023-02-23T17:48:36.471Z,44.67
2023-02-23T17:51:08.568Z,47.40
2023-02-23T17:53:36.128Z,40.80
2023-02-23T17:56:03.328Z,37.40
2023-02-23T17:58:30.566Z,36.60
2023-02-23T18:00:59.306Z,36.30
2023-02-23T18:03:31.900Z,35.30
2023-02-23T18:06:00.865Z,42.10
2023-02-23T18:08:29.208Z,43.70
2023-02-23T18:10:57.238Z,32.63
2023-02-23T18:13:25.262Z,32.60
2023-02-23T18:15:53.869Z,32.37
2023-02-23T18:18:21.509Z,27.20
2023-02-23T18:20:50.490Z,31.23
2023-02-23T18:23:17.892Z,37.13
2023-02-23T18:25:47.817Z,42.80
2023-02-23T18:28:15.535Z,52.73
2023-02-23T18:30:43.556Z,57.80
2023-02-23T18:33:11.117Z,55.97
2023-02-23T18:35:40.438Z,57.07
2023-02-23T18:38:10.495Z,63.07
2023-02-23T18:40:39.369Z,64.53
2023-02-23T18:43:08.261Z,84.60
2023-02-23T18:45:35.569Z,85.50
2023-02-23T18:48:02.464Z,92.80
2023-02-23T18:50:29.876Z,96.70
2023-02-23T18:52:58.900Z,97.77
2023-02-23T18:55:26.046Z,105.23
2023-02-23T18:57:52.976Z,113.93
2023-02-23T19:00:22.308Z,105.33
2023-02-23T19:02:49.432Z,107.13
2023-02-23T19:05:19.603Z,112.50
2023-02-23T19:07:47.681Z,108.97
2023-02-23T19:10:15.451Z,94.10
2023-02-23T19:12:42.610Z,103.00
2023-02-23T19:15:10.495Z,104.33
2023-02-23T19:17:38.864Z,110.10
2023-02-23T19:20:13.331Z,112.90
2023-02-23T19:22:41.326Z,108.73
2023-02-23T19:25:11.695Z,116.87
2023-02-23T19:27:38.739Z,113.47
2023-02-23T19:30:10.097Z,128.60
2023-02-23T19:32:40.026Z,122.43
2023-02-23T19:35:10.283Z,119.47
2023-02-23T19:37:39.625Z,116.20
2023-02-23T19:40:07.751Z,110.40
2023-02-23T19:42:36.755Z,117.17
2023-02-23T19:45:04.174Z,122.10
2023-02-23T19:47:31.083Z,112.33
2023-02-23T19:49:59.530Z,104.43
2023-02-23T19:52:28.750Z,115.27
2023-02-23T19:54:55.578Z,112.50
2023-02-23T19:57:22.666Z,105.80
2023-02-23T19:59:49.499Z,111.53
2023-02-23T20:02:16.356Z,109.77
2023-02-23T20:04:43.531Z,104.43
2023-02-23T20:07:11.763Z,104.50
2023-02-23T20:09:39.004Z,108.20
2023-02-23T20:12:06.609Z,112.50
2023-02-23T20:14:33.558Z,114.97
2023-02-23T20:17:01.098Z,102.57
2023-02-23T20:19:28.773Z,111.40
2023-02-23T20:21:55.641Z,115.20
2023-02-23T20:24:23.979Z,114.00
2023-02-23T20:26:52.388Z,116.27
2023-02-23T20:29:19.349Z,117.13
2023-02-23T20:31:50.423Z,116.30
2023-02-23T20:34:20.406Z,100.60
2023-02-23T20:36:48.315Z,119.40
2023-02-23T20:39:16.869Z,132.47
2023-02-23T20:41:48.120Z,123.63
2023-02-23T20:44:16.113Z,121.27
2023-02-23T20:46:44.550Z,126.90
2023-02-23T20:49:16.985Z,126.27
2023-02-23T20:51:48.614Z,129.20
2023-02-23T20:54:17.178Z,139.93
2023-02-23T20:56:45.778Z,129.33
2023-02-23T20:59:13.326Z,119.13
2023-02-23T21:01:41.709Z,103.17
2023-02-23T21:04:09.190Z,81.30
2023-02-23T21:06:36.553Z,56.90
2023-02-23T21:09:12.592Z,47.27
2023-02-23T21:11:39.822Z,39.33
2023-02-23T21:14:08.452Z,43.37
2023-02-23T21:16:36.152Z,35.13
2023-02-23T21:19:06.016Z,41.63
2023-02-23T21:21:38.462Z,39.73
2023-02-23T21:24:05.867Z,25.67
2023-02-23T21:26:33.309Z,25.23
2023-02-23T21:29:00.519Z,28.00
2023-02-23T21:31:29.028Z,30.27
2023-02-23T21:33:56.548Z,26.30
2023-02-23T21:36:23.529Z,25.70
2023-02-23T21:38:51.645Z,29.50
2023-02-23T21:41:18.998Z,21.67
2023-02-23T21:43:46.929Z,26.47
2023-02-23T21:46:16.131Z,41.20
2023-02-23T21:48:44.466Z,28.67
2023-02-23T21:51:14.008Z,33.00
2023-02-23T21:53:41.329Z,19.13
2023-02-23T21:56:13.382Z,28.10
2023-02-23T21:58:43.686Z,30.00
2023-02-23T22:01:12.515Z,34.20
2023-02-23T22:03:40.621Z,23.10
2023-02-23T22:06:09.629Z,33.27
2023-02-23T22:08:36.467Z,31.47
2023-02-23T22:11:07.551Z,31.97
2023-02-23T22:13:34.429Z,28.33
2023-02-23T22:16:01.663Z,30.70
2023-02-23T22:18:28.971Z,28.07
2023-02-23T22:20:57.452Z,35.00
2023-02-23T22:23:27.657Z,36.17
2023-02-23T22:25:55.240Z,25.00
2023-02-23T22:28:22.117Z,42.77
2023-02-23T22:30:50.988Z,31.53
2023-02-23T22:33:19.302Z,29.57
2023-02-23T22:35:46.731Z,32.83
2023-02-23T22:38:14.045Z,31.03
2023-02-23T22:40:42.794Z,29.53
2023-02-23T22:43:10.306Z,32.40
2023-02-23T22:45:38.250Z,30.83
2023-02-23T22:48:06.778Z,30.50
2023-02-23T22:50:34.575Z,26.80
2023-02-23T22:53:01.473Z,24.87
2023-02-23T22:55:29.291Z,26.20
2023-02-23T22:57:59.725Z,31.23
2023-02-23T23:00:29.174Z,39.07
2023-02-23T23:02:56.048Z,25.77
2023-02-23T23:05:23.392Z,26.17
2023-02-23T23:07:50.283Z,36.47
2023-02-23T23:10:18.356Z,32.30
2023-02-23T23:12:45.276Z,30.03
2023-02-23T23:15:19.169Z,25.30
2023-02-23T23:17:48.421Z,30.40
2023-02-23T23:20:18.155Z,29.50
2023-02-23T23:22:45.531Z,34.40
2023-02-23T23:25:15.488Z,34.73
2023-02-23T23:27:42.935Z,31.20
2023-02-23T23:30:11.748Z,27.97
2023-02-23T23:32:40.975Z,26.90
2023-02-23T23:35:11.336Z,21.70
2023-02-23T23:37:39.839Z,25.50
2023-02-23T23:40:14.323Z,29.27
2023-02-23T23:42:46.418Z,22.90
2023-02-23T23:45:16.466Z,29.47
2023-02-23T23:47:45.446Z,36.07
2023-02-23T23:50:14.078Z,28.23
2023-02-23T23:52:45.059Z,31.53
2023-02-23T23:55:14.633Z,32.53
2023-02-23T23:57:42.171Z,26.43
